Weather at Texas Department of Public Safety Heliport

Public forecast

Using degrees Fahrenheit for public forecast. Weather courtesy of forecast.io.

Closest aviation weather report (METAR) to Texas Department of Public Safety Heliport

Closest report is Corpus Christi International Airport, 3.9 nm (7.3 km) WNW. Retrieved 2020/12/01 06:51 UTC (37 minutes ago):

KCRP 010651Z 00000KT 10SM CLR 02/01 A3032 RMK AO2 SLP268 T00220006

Closest aviation forecast (TAF) to Texas Department of Public Safety Heliport

Closest forecast is Corpus Christi International Airport, 3.9 nm (7.3 km) WNW. Retrieved 2020/12/01 06:22 UTC (1 hour ago):

TAF KCRP 010520Z 0106/0206 VRB04KT P6SM SKC FM011700 16013KT P6SM FEW035 FM020000 19007KT P6SM SCT040